Time;durP1;ratioP1;P1;durP2;ratioP2;P2;SDS_P1;SDS_P2;PMS_P1;PMS_P2;Temp;Humidity;BMP_temperature;BMP_pressure;BME280_temperature;BME280_humidity;BME280_pressure;Samples;Min_cycle;Max_cycle;Signal;HPM_P1;HPM_P2
2022/03/10 00:00:23;;;;;;;21.38;13.60;;;5.30;90.40;;;;;;5093910;28;20198;-45
2022/03/10 00:02:49;;;;;;;23.13;15.60;;;5.20;90.20;;;;;;5093397;28;20666;-43
2022/03/10 00:05:18;;;;;;;24.27;15.43;;;5.20;90.40;;;;;;5094146;28;20471;-43
2022/03/10 00:07:46;;;;;;;20.45;14.35;;;5.40;90.70;;;;;;5093690;28;20476;-43
2022/03/10 00:10:13;;;;;;;22.47;13.13;;;5.50;91.00;;;;;;5075296;28;20548;-44
2022/03/10 00:12:47;;;;;;;24.90;14.68;;;5.20;90.70;;;;;;5094356;28;20456;-43
2022/03/10 00:15:14;;;;;;;20.42;14.18;;;5.20;90.40;;;;;;5093839;28;20199;-43
2022/03/10 00:17:41;;;;;;;23.83;14.27;;;5.10;90.60;;;;;;5093803;28;20543;-43
2022/03/10 00:20:09;;;;;;;22.17;14.25;;;5.00;90.80;;;;;;5093144;28;20433;-42
2022/03/10 00:22:45;;;;;;;30.40;14.60;;;4.90;90.90;;;;;;5093522;28;20204;-44
2022/03/10 00:25:13;;;;;;;24.45;15.23;;;5.10;91.20;;;;;;5087087;28;20196;-43
2022/03/10 00:27:40;;;;;;;25.65;14.90;;;;;;;;;;5073187;28;20350;-46
2022/03/10 00:30:10;;;;;;;22.35;15.43;;;5.20;91.50;;;;;;5072588;28;20242;-44
2022/03/10 00:32:44;;;;;;;23.92;16.65;;;5.10;91.50;;;;;;5073146;28;20199;-43
2022/03/10 00:35:11;;;;;;;24.27;14.93;;;5.00;91.70;;;;;;5073068;28;20209;-43
2022/03/10 00:37:38;;;;;;;21.30;15.73;;;;;;;;;;5073032;28;20461;-45
2022/03/10 00:40:07;;;;;;;20.77;13.60;;;4.90;91.90;;;;;;5076319;28;20218;-44
2022/03/10 00:42:38;;;;;;;26.77;14.83;;;4.90;91.80;;;;;;5093046;28;20460;-44
2022/03/10 00:45:06;;;;;;;24.50;14.80;;;5.20;92.10;;;;;;5093050;28;20932;-44
2022/03/10 00:47:33;;;;;;;27.20;17.57;;;4.90;92.20;;;;;;5093022;28;20469;-43
2022/03/10 00:50:00;;;;;;;26.38;15.80;;;5.10;92.00;;;;;;5092609;28;20454;-45
2022/03/10 00:52:28;;;;;;;24.67;16.02;;;;;;;;;;5092964;28;20206;-44
2022/03/10 00:54:55;;;;;;;25.75;17.50;;;;;;;;;;5079172;28;20582;-44
2022/03/10 00:57:22;;;;;;;24.63;16.40;;;5.00;92.50;;;;;;5072969;28;20282;-44
2022/03/10 00:59:49;;;;;;;26.02;17.83;;;;;;;;;;5072410;28;20215;-44
2022/03/10 01:02:17;;;;;;;25.65;16.05;;;5.10;92.40;;;;;;5072584;28;20302;-43
2022/03/10 01:04:44;;;;;;;25.48;15.07;;;4.80;92.30;;;;;;5072508;28;20210;-44
2022/03/10 01:07:11;;;;;;;27.85;17.65;;;5.10;92.80;;;;;;5072359;28;20667;-44
2022/03/10 01:09:38;;;;;;;25.42;15.85;;;5.00;93.10;;;;;;5071743;28;20699;-44
2022/03/10 01:12:05;;;;;;;29.63;15.73;;;4.80;93.30;;;;;;5072414;28;20191;-48
2022/03/10 01:14:33;;;;;;;28.08;17.60;;;5.00;93.30;;;;;;5071828;28;20191;-42
2022/03/10 01:17:00;;;;;;;23.33;15.95;;;5.10;93.30;;;;;;5072217;28;20701;-43
2022/03/10 01:19:27;;;;;;;24.60;16.20;;;5.10;93.40;;;;;;5072311;28;20313;-43
2022/03/10 01:21:54;;;;;;;26.03;17.03;;;4.90;93.30;;;;;;5072243;28;20191;-43
2022/03/10 01:24:20;;;;;;;25.77;16.30;;;5.00;93.50;;;;;;5072506;28;20444;-42
2022/03/10 01:26:49;;;;;;;28.20;15.85;;;4.90;93.60;;;;;;5072351;28;20441;-45
2022/03/10 01:29:17;;;;;;;29.20;17.15;;;5.10;93.60;;;;;;5072017;28;20237;-43
2022/03/10 01:31:46;;;;;;;25.10;17.53;;;4.60;93.70;;;;;;5071998;28;20191;-44
2022/03/10 01:34:13;;;;;;;28.08;17.00;;;4.70;93.50;;;;;;5072346;28;20767;-44
2022/03/10 01:36:41;;;;;;;25.27;17.13;;;4.80;93.90;;;;;;5072007;28;20564;-43
2022/03/10 01:39:07;;;;;;;24.38;16.40;;;4.70;93.90;;;;;;5071605;28;20207;-45
2022/03/10 01:41:35;;;;;;;25.55;16.95;;;5.00;94.20;;;;;;5071891;28;20210;-42
2022/03/10 01:44:04;;;;;;;25.20;16.95;;;4.70;94.00;;;;;;5070618;28;20261;-44
2022/03/10 01:46:33;;;;;;;27.13;17.75;;;4.80;94.20;;;;;;5071839;28;20587;-43
2022/03/10 01:49:01;;;;;;;31.70;17.73;;;4.90;94.60;;;;;;5071257;28;20684;-46
2022/03/10 01:51:29;;;;;;;29.15;18.05;;;4.70;94.50;;;;;;5071750;28;20559;-46
2022/03/10 01:53:56;;;;;;;25.17;17.52;;;;;;;;;;5077051;28;20202;-46
2022/03/10 01:56:24;;;;;;;24.65;17.17;;;;;;;;;;5092058;28;20198;-43
2022/03/10 01:58:53;;;;;;;28.70;17.23;;;4.50;94.70;;;;;;5091554;28;20217;-44
2022/03/10 02:01:21;;;;;;;24.30;17.85;;;4.70;95.10;;;;;;5091887;28;20202;-45
2022/03/10 02:03:48;;;;;;;27.07;17.77;;;;;;;;;;5073924;28;20577;-43
2022/03/10 02:06:15;;;;;;;29.05;19.83;;;4.50;94.80;;;;;;5091945;28;20441;-43
2022/03/10 02:11:28;;;;;;;26.58;16.10;;;4.60;95.30;;;;;;5092090;28;20583;-43
2022/03/10 02:13:55;;;;;;;27.67;17.20;;;4.50;95.30;;;;;;5091844;28;20202;-44
2022/03/10 02:19:06;;;;;;;27.45;18.85;;;4.60;95.40;;;;;;5091345;28;20210;-45
2022/03/10 02:21:35;;;;;;;28.52;17.67;;;4.50;95.50;;;;;;5091822;28;20274;-45
2022/03/10 02:24:03;;;;;;;30.20;19.10;;;4.50;95.80;;;;;;5091655;28;20190;-44
2022/03/10 02:26:30;;;;;;;32.63;16.10;;;4.50;95.70;;;;;;5076105;28;20203;-44
2022/03/10 02:28:57;;;;;;;25.73;17.48;;;4.30;95.90;;;;;;5074989;28;20225;-46
2022/03/10 02:31:23;;;;;;;29.15;19.52;;;4.40;95.90;;;;;;5075331;28;20203;-44
2022/03/10 02:33:50;;;;;;;30.17;18.48;;;4.20;96.00;;;;;;5075517;28;20206;-44
2022/03/10 02:36:17;;;;;;;31.90;19.55;;;;;;;;;;5075492;28;20248;-47
2022/03/10 02:38:44;;;;;;;31.20;18.38;;;4.10;95.80;;;;;;5075050;28;20219;-43
2022/03/10 02:41:12;;;;;;;27.98;17.80;;;4.30;95.90;;;;;;5069923;28;20209;-43
2022/03/10 02:43:38;;;;;;;31.83;19.63;;;4.40;96.00;;;;;;5095438;28;20199;-43
2022/03/10 02:46:05;;;;;;;29.85;18.95;;;4.40;96.20;;;;;;5095396;28;20198;-44
2022/03/10 02:48:32;;;;;;;33.35;18.55;;;4.30;96.10;;;;;;5094942;28;20223;-43
2022/03/10 02:50:58;;;;;;;30.30;19.33;;;4.10;96.10;;;;;;5095412;28;20205;-43
2022/03/10 02:53:25;;;;;;;26.55;18.35;;;4.20;96.10;;;;;;5095364;28;20194;-45
2022/03/10 02:55:52;;;;;;;34.42;20.30;;;4.20;96.20;;;;;;5075773;28;20192;-43
2022/03/10 02:58:20;;;;;;;28.95;18.40;;;4.10;96.40;;;;;;5075397;28;20552;-42
2022/03/10 03:00:46;;;;;;;28.08;18.85;;;4.20;96.50;;;;;;5074598;28;20203;-44
2022/03/10 03:03:13;;;;;;;32.72;18.95;;;4.00;96.50;;;;;;5075045;28;20204;-43
2022/03/10 03:05:40;;;;;;;30.13;19.20;;;;;;;;;;5074954;28;20196;-44
2022/03/10 03:08:08;;;;;;;36.38;18.63;;;;;;;;;;5074591;28;20234;-46
2022/03/10 03:10:36;;;;;;;31.60;18.52;;;4.20;96.70;;;;;;5074679;28;20203;-43
2022/03/10 03:13:05;;;;;;;28.98;19.80;;;;;;;;;;5056979;28;20203;-42
2022/03/10 03:15:33;;;;;;;28.38;18.65;;;4.10;96.90;;;;;;5074750;28;20712;-43
2022/03/10 03:17:59;;;;;;;28.92;18.60;;;3.90;96.80;;;;;;5074687;28;20195;-44
2022/03/10 03:20:26;;;;;;;33.75;19.52;;;3.90;97.00;;;;;;5074375;28;20219;-42
2022/03/10 03:22:52;;;;;;;32.15;19.13;;;3.90;97.00;;;;;;5074885;28;20203;-43
2022/03/10 03:25:19;;;;;;;28.48;19.23;;;4.10;97.00;;;;;;5074803;28;20203;-43
2022/03/10 03:27:46;;;;;;;33.38;19.98;;;4.10;97.10;;;;;;5074709;28;20206;-43
2022/03/10 03:30:13;;;;;;;34.75;20.02;;;4.10;97.50;;;;;;5074329;28;20238;-42
2022/03/10 03:32:41;;;;;;;31.63;16.48;;;3.90;97.50;;;;;;5056858;28;20195;-46
2022/03/10 03:35:08;;;;;;;27.65;18.70;;;;;;;;;;5074593;28;20438;-41
2022/03/10 03:37:35;;;;;;;29.33;18.00;;;;;;;;;;5073618;28;20199;-43
2022/03/10 03:40:02;;;;;;;31.38;18.00;;;;;;;;;;5073666;28;20699;-42
2022/03/10 03:42:34;;;;;;;32.85;17.70;;;4.20;97.80;;;;;;5074278;28;20660;-44
2022/03/10 03:45:00;;;;;;;36.10;18.75;;;;;;;;;;5074052;28;20206;-45
2022/03/10 03:47:27;;;;;;;27.20;17.67;;;3.90;97.70;;;;;;5074074;28;20196;-43
2022/03/10 03:49:55;;;;;;;29.80;18.85;;;3.80;97.80;;;;;;5073368;28;20687;-42
2022/03/10 03:52:22;;;;;;;28.80;17.02;;;3.90;97.90;;;;;;5074009;28;20218;-43
2022/03/10 03:54:48;;;;;;;26.50;18.73;;;4.00;97.90;;;;;;5086589;28;20203;-43
2022/03/10 03:57:15;;;;;;;32.65;19.50;;;;;;;;;;5094042;28;20190;-44
2022/03/10 03:59:42;;;;;;;30.20;17.70;;;;;;;;;;5093847;28;20211;-42
2022/03/10 04:02:09;;;;;;;28.60;18.60;;;4.00;97.80;;;;;;5094302;28;20210;-44
2022/03/10 04:04:36;;;;;;;26.10;17.67;;;4.20;98.00;;;;;;5093917;28;20590;-43
2022/03/10 04:07:04;;;;;;;29.70;18.55;;;4.10;98.10;;;;;;5093787;28;20194;-43
2022/03/10 04:09:31;;;;;;;30.10;18.40;;;4.20;98.20;;;;;;5093188;28;20666;-43
2022/03/10 04:11:57;;;;;;;29.75;17.77;;;3.90;98.00;;;;;;5093743;28;20216;-44
2022/03/10 04:14:24;;;;;;;26.35;19.10;;;3.90;98.10;;;;;;5093684;28;20199;-43
2022/03/10 04:16:51;;;;;;;26.55;17.73;;;4.00;98.50;;;;;;5093881;28;20652;-43
2022/03/10 04:19:17;;;;;;;32.47;18.40;;;3.80;98.20;;;;;;5093505;28;20215;-43
2022/03/10 04:21:44;;;;;;;28.05;18.40;;;4.00;98.40;;;;;;5093955;28;20190;-43
2022/03/10 04:24:12;;;;;;;27.02;17.45;;;3.80;98.40;;;;;;5093541;28;20198;-42
2022/03/10 04:26:39;;;;;;;29.05;17.45;;;3.80;98.50;;;;;;5075063;28;20211;-42
2022/03/10 04:29:06;;;;;;;30.58;18.58;;;;;;;;;;5072819;28;20255;-43
2022/03/10 04:31:33;;;;;;;31.10;18.55;;;;;;;;;;5073254;28;20569;-42
2022/03/10 04:34:00;;;;;;;36.75;18.40;;;4.10;98.80;;;;;;5073256;28;20196;-44
2022/03/10 04:36:27;;;;;;;26.45;18.42;;;4.20;98.80;;;;;;5073312;28;20630;-43
2022/03/10 04:38:53;;;;;;;23.77;17.08;;;4.00;98.60;;;;;;5073164;28;20211;-42
2022/03/10 04:41:21;;;;;;;32.25;17.70;;;4.00;98.80;;;;;;5087523;28;20663;-44
2022/03/10 04:43:48;;;;;;;30.85;18.45;;;;;;;;;;5093139;28;20233;-44
2022/03/10 04:46:15;;;;;;;31.58;19.83;;;4.00;98.90;;;;;;5093297;28;20202;-44
2022/03/10 04:48:42;;;;;;;29.85;17.95;;;3.90;98.80;;;;;;5092529;28;20215;-43
2022/03/10 04:51:09;;;;;;;30.15;17.58;;;3.90;98.90;;;;;;5092514;28;20220;-43
2022/03/10 04:53:36;;;;;;;29.83;18.42;;;3.90;99.20;;;;;;5090502;28;20195;-42
2022/03/10 04:56:03;;;;;;;25.02;17.35;;;;;;;;;;5072701;28;20679;-44
2022/03/10 04:58:31;;;;;;;32.53;18.10;;;3.90;99.20;;;;;;5072183;28;20227;-43
2022/03/10 05:00:57;;;;;;;34.97;18.95;;;4.00;99.10;;;;;;5072623;28;20205;-42
2022/03/10 05:03:24;;;;;;;29.35;18.10;;;3.90;99.10;;;;;;5072850;28;20199;-42
2022/03/10 05:05:51;;;;;;;31.10;20.10;;;3.90;99.10;;;;;;5073046;28;20202;-42
2022/03/10 05:08:17;;;;;;;33.17;18.98;;;3.90;99.20;;;;;;5072943;28;20710;-45
2022/03/10 05:10:44;;;;;;;29.60;17.48;;;;;;;;;;5072112;28;20229;-45
2022/03/10 05:13:11;;;;;;;32.53;18.30;;;4.10;99.50;;;;;;5072582;28;20196;-45
2022/03/10 05:15:39;;;;;;;31.65;19.15;;;4.00;99.30;;;;;;5072601;28;20203;-45
2022/03/10 05:18:06;;;;;;;29.45;18.33;;;4.10;99.40;;;;;;5072474;28;20227;-45
2022/03/10 05:20:33;;;;;;;32.95;19.38;;;4.00;99.50;;;;;;5072131;28;20573;-44
2022/03/10 05:23:01;;;;;;;25.98;18.50;;;4.10;99.60;;;;;;5072480;28;20203;-45
2022/03/10 05:25:32;;;;;;;28.20;18.80;;;;;;;;;;5072298;28;20199;-45
2022/03/10 05:27:59;;;;;;;31.75;19.15;;;3.80;99.50;;;;;;5072235;28;20206;-45
2022/03/10 05:30:26;;;;;;;32.00;20.63;;;4.10;99.60;;;;;;5072109;28;20215;-45
2022/03/10 05:32:54;;;;;;;30.25;17.90;;;4.20;99.70;;;;;;5072637;28;20195;-46
2022/03/10 05:35:21;;;;;;;35.35;19.58;;;3.80;99.50;;;;;;5072017;28;20214;-45
2022/03/10 05:37:49;;;;;;;40.83;19.95;;;4.10;99.60;;;;;;5071939;28;20191;-45
2022/03/10 05:40:19;;;;;;;34.80;20.70;;;3.70;99.60;;;;;;5071396;28;20195;-45
2022/03/10 05:42:47;;;;;;;30.55;20.27;;;4.00;99.80;;;;;;5072141;28;20651;-45
2022/03/10 05:45:19;;;;;;;32.28;19.95;;;4.10;99.90;;;;;;5071996;28;20253;-45
2022/03/10 05:47:46;;;;;;;38.17;19.75;;;;;;;;;;5072061;28;20723;-45
2022/03/10 05:50:15;;;;;;;35.85;20.98;;;4.20;99.90;;;;;;5071721;28;20234;-45
2022/03/10 05:52:42;;;;;;;37.50;22.63;;;;;;;;;;5071931;28;20249;-45
2022/03/10 05:55:10;;;;;;;30.42;20.17;;;;;;;;;;5073742;28;20655;-45
2022/03/10 05:57:36;;;;;;;33.65;21.08;;;4.00;99.90;;;;;;5093298;28;20218;-45
2022/03/10 06:00:04;;;;;;;36.70;19.13;;;;;;;;;;5092410;28;20206;-46
2022/03/10 06:02:39;;;;;;;33.53;20.85;;;4.20;99.90;;;;;;5092644;28;20561;-45
2022/03/10 06:05:06;;;;;;;33.50;21.88;;;;;;;;;;5092800;28;20659;-45
2022/03/10 06:07:34;;;;;;;39.90;22.65;;;;;;;;;;5092528;28;20202;-45
2022/03/10 06:10:03;;;;;;;35.58;21.45;;;;;;;;;;5091812;28;20273;-45
2022/03/10 06:12:29;;;;;;;37.30;21.02;;;4.10;99.90;;;;;;5092046;28;20256;-45
2022/03/10 06:14:57;;;;;;;36.80;22.20;;;4.30;99.90;;;;;;5091840;28;20697;-46
2022/03/10 06:17:24;;;;;;;34.47;21.08;;;4.00;99.90;;;;;;5091763;28;20201;-46
2022/03/10 06:19:51;;;;;;;33.90;20.15;;;4.30;99.90;;;;;;5091530;28;20260;-45
2022/03/10 06:22:18;;;;;;;34.20;21.08;;;;;;;;;;5092136;28;20219;-45
2022/03/10 06:24:47;;;;;;;36.10;21.48;;;4.40;99.90;;;;;;5089009;28;20199;-45
2022/03/10 06:27:14;;;;;;;36.13;21.75;;;4.90;99.90;;;;;;5071721;28;20282;-45
2022/03/10 06:29:41;;;;;;;34.47;20.85;;;;;;;;;;5071161;28;20273;-46
2022/03/10 06:32:08;;;;;;;34.83;21.63;;;;;;;;;;5071767;28;20207;-46
2022/03/10 06:34:37;;;;;;;32.05;21.05;;;4.50;99.80;;;;;;5071751;28;20199;-46
2022/03/10 06:37:04;;;;;;;33.33;21.33;;;4.60;99.80;;;;;;5072075;28;20283;-46
2022/03/10 06:39:31;;;;;;;32.03;20.88;;;4.60;99.70;;;;;;5071304;28;20211;-46
2022/03/10 06:41:59;;;;;;;31.08;20.98;;;;;;;;;;5090345;28;20203;-48
2022/03/10 06:44:26;;;;;;;39.30;21.27;;;4.90;99.60;;;;;;5092019;28;20202;-46
2022/03/10 06:46:53;;;;;;;37.92;23.67;;;;;;;;;;5092742;28;20233;-46
2022/03/10 06:49:20;;;;;;;36.03;21.77;;;4.80;99.40;;;;;;5090608;28;20218;-45
2022/03/10 06:51:48;;;;;;;33.92;20.80;;;;;;;;;;5091528;28;20879;-45
2022/03/10 06:54:15;;;;;;;35.33;21.48;;;;;;;;;;5065486;28;20401;-45
2022/03/10 06:56:42;;;;;;;37.85;22.67;;;4.80;99.30;;;;;;5071654;28;20199;-45
2022/03/10 06:59:10;;;;;;;35.83;23.90;;;5.20;99.50;;;;;;5071463;28;20223;-45
2022/03/10 07:01:38;;;;;;;34.67;21.40;;;;;;;;;;5072125;28;20214;-45
2022/03/10 07:04:05;;;;;;;34.47;22.02;;;;;;;;;;5072091;28;20191;-46
2022/03/10 07:06:32;;;;;;;37.08;23.15;;;5.00;99.30;;;;;;5071824;28;20590;-45
2022/03/10 07:08:58;;;;;;;34.72;22.60;;;5.00;99.40;;;;;;5071415;28;20226;-46
2022/03/10 07:11:25;;;;;;;42.67;21.20;;;5.30;99.60;;;;;;5072529;28;20234;-45
2022/03/10 07:13:52;;;;;;;32.42;20.48;;;5.10;99.60;;;;;;5074826;28;20222;-46
2022/03/10 07:16:20;;;;;;;42.30;23.00;;;5.30;99.70;;;;;;5075837;28;20680;-46
2022/03/10 07:18:50;;;;;;;39.63;22.98;;;5.50;99.80;;;;;;5075463;28;20211;-45
2022/03/10 07:21:17;;;;;;;37.40;23.38;;;5.50;99.90;;;;;;5075340;28;20195;-46
2022/03/10 07:23:44;;;;;;;38.55;22.63;;;;;;;;;;5074674;28;20663;-47
2022/03/10 07:26:11;;;;;;;34.45;21.95;;;5.10;99.70;;;;;;5074964;28;20211;-45
2022/03/10 07:28:38;;;;;;;36.67;21.70;;;;;;;;;;5075007;28;20233;-45
2022/03/10 07:31:04;;;;;;;38.17;19.83;;;5.40;99.90;;;;;;5075503;28;20838;-46
2022/03/10 07:33:32;;;;;;;28.45;19.70;;;5.60;99.90;;;;;;5074507;28;20196;-46
2022/03/10 07:35:59;;;;;;;33.72;22.02;;;5.30;99.90;;;;;;5074225;28;20717;-46
2022/03/10 07:38:26;;;;;;;35.15;19.70;;;5.40;99.90;;;;;;5074102;28;20255;-45
2022/03/10 07:40:54;;;;;;;42.75;20.70;;;5.30;99.90;;;;;;5074705;28;20187;-45
2022/03/10 07:43:21;;;;;;;32.58;20.90;;;;;;;;;;5074686;28;20241;-44
2022/03/10 07:45:49;;;;;;;37.30;22.30;;;;;;;;;;5074324;28;20195;-46
2022/03/10 07:48:15;;;;;;;33.50;22.50;;;5.40;99.90;;;;;;5074106;28;20314;-46
2022/03/10 07:50:43;;;;;;;39.38;22.30;;;5.50;99.90;;;;;;5073984;28;20780;-46
2022/03/10 07:53:10;;;;;;;28.52;20.02;;;;;;;;;;5074387;28;20191;-45
2022/03/10 07:55:37;;;;;;;39.90;20.60;;;;;;;;;;5092905;28;20290;-45
2022/03/10 07:58:04;;;;;;;32.90;20.73;;;5.60;99.90;;;;;;5094460;28;20261;-45
2022/03/10 08:00:32;;;;;;;40.13;24.27;;;5.50;99.90;;;;;;5093948;28;20310;-44
2022/03/10 08:02:58;;;;;;;35.00;22.57;;;5.70;99.90;;;;;;5094187;28;20442;-45
2022/03/10 08:05:25;;;;;;;32.33;22.17;;;5.50;99.90;;;;;;5094173;28;20437;-45
2022/03/10 08:07:53;;;;;;;32.50;20.80;;;5.80;99.90;;;;;;5093821;28;20436;-44
2022/03/10 08:10:20;;;;;;;38.23;22.47;;;;;;;;;;5094438;28;20481;-45
2022/03/10 08:12:47;;;;;;;31.67;21.83;;;;;;;;;;5094640;28;20433;-45
2022/03/10 08:15:15;;;;;;;36.47;22.90;;;5.70;99.90;;;;;;5094915;28;20933;-46
2022/03/10 08:17:41;;;;;;;37.17;23.07;;;5.80;99.90;;;;;;5093946;28;20449;-45
2022/03/10 08:20:09;;;;;;;36.90;22.50;;;5.70;99.90;;;;;;5093834;28;20452;-46
2022/03/10 08:22:35;;;;;;;33.63;23.00;;;6.00;99.90;;;;;;5094468;28;20191;-46
2022/03/10 08:25:04;;;;;;;34.45;21.42;;;5.90;99.90;;;;;;5088579;28;20450;-46
2022/03/10 08:27:30;;;;;;;34.93;20.80;;;5.60;99.90;;;;;;5073775;28;20818;-46
2022/03/10 08:29:57;;;;;;;32.97;22.27;;;6.10;99.90;;;;;;5092931;28;20459;-45
2022/03/10 08:32:25;;;;;;;31.20;20.33;;;6.20;99.90;;;;;;5094063;28;21023;-46
2022/03/10 08:34:52;;;;;;;36.10;20.47;;;6.00;99.90;;;;;;5093281;28;20885;-45
2022/03/10 08:37:19;;;;;;;40.13;21.70;;;;;;;;;;5093916;28;20426;-46
2022/03/10 08:39:46;;;;;;;32.23;21.03;;;5.90;99.90;;;;;;5092738;28;20806;-45
2022/03/10 08:42:13;;;;;;;39.40;22.83;;;6.00;99.90;;;;;;5074145;28;20441;-45
2022/03/10 08:44:40;;;;;;;30.90;21.17;;;6.30;99.90;;;;;;5074209;28;20430;-45
2022/03/10 08:47:07;;;;;;;36.07;21.40;;;6.30;99.90;;;;;;5073833;28;20442;-45
2022/03/10 08:49:34;;;;;;;31.80;20.87;;;6.10;99.90;;;;;;5073282;28;20462;-44
2022/03/10 08:52:00;;;;;;;29.90;21.60;;;6.40;99.90;;;;;;5072819;28;20937;-46
2022/03/10 08:54:27;;;;;;;28.33;20.83;;;6.10;99.90;;;;;;5072919;28;20439;-46
2022/03/10 08:56:54;;;;;;;30.03;21.83;;;6.30;99.90;;;;;;5073015;28;20443;-46
2022/03/10 08:59:21;;;;;;;33.10;20.00;;;6.40;99.90;;;;;;5072510;28;20460;-46
2022/03/10 09:01:48;;;;;;;31.87;20.53;;;;;;;;;;5073157;28;20445;-45
2022/03/10 09:04:16;;;;;;;39.47;21.17;;;;;;;;;;5073639;28;20438;-45
2022/03/10 09:06:43;;;;;;;28.03;19.77;;;;;;;;;;5073255;28;20444;-45
2022/03/10 09:09:09;;;;;;;38.70;24.67;;;6.40;99.90;;;;;;5071332;28;20475;-46
2022/03/10 09:11:38;;;;;;;36.93;21.77;;;6.60;99.90;;;;;;5082169;28;20572;-46
2022/03/10 09:14:05;;;;;;;34.57;21.57;;;;;;;;;;5077440;28;20430;-45
2022/03/10 09:16:33;;;;;;;29.83;21.77;;;6.40;99.90;;;;;;5092553;28;20429;-46
2022/03/10 09:19:00;;;;;;;35.77;21.00;;;6.60;99.90;;;;;;5081599;28;20462;-46
2022/03/10 09:21:28;;;;;;;33.23;22.70;;;6.70;99.90;;;;;;5072544;28;20438;-46
2022/03/10 09:23:55;;;;;;;35.93;21.83;;;;;;;;;;5073009;28;20458;-47
2022/03/10 09:26:21;;;;;;;31.70;21.50;;;6.90;99.90;;;;;;5088095;28;20439;-46
2022/03/10 09:28:48;;;;;;;33.30;20.20;;;6.60;99.90;;;;;;5072230;28;20982;-46
2022/03/10 09:31:16;;;;;;;33.67;19.90;;;;;;;;;;5072145;28;20475;-46
2022/03/10 09:33:45;;;;;;;34.60;20.83;;;6.70;99.90;;;;;;5072111;28;20437;-47
2022/03/10 09:36:13;;;;;;;33.83;21.30;;;6.80;99.90;;;;;;5071100;28;20439;-46
2022/03/10 09:38:40;;;;;;;38.13;22.67;;;;;;;;;;5072025;28;20809;-46
2022/03/10 09:41:07;;;;;;;31.80;20.60;;;6.80;99.90;;;;;;5071986;28;20439;-46
2022/03/10 09:43:35;;;;;;;32.63;22.03;;;7.20;99.90;;;;;;5074254;28;20441;-46
2022/03/10 09:46:02;;;;;;;42.37;23.00;;;;;;;;;;5092758;28;20410;-46
2022/03/10 09:48:29;;;;;;;29.30;20.73;;;;;;;;;;5073949;28;20472;-46
2022/03/10 09:50:58;;;;;;;30.10;21.70;;;7.00;99.90;;;;;;5092259;28;20547;-46
2022/03/10 09:53:24;;;;;;;31.77;19.53;;;7.10;99.90;;;;;;5091148;28;20935;-46
2022/03/10 09:55:52;;;;;;;37.27;20.70;;;7.30;99.90;;;;;;5071797;28;20427;-45
2022/03/10 09:58:18;;;;;;;32.90;22.23;;;7.30;99.90;;;;;;5071497;28;20450;-45
2022/03/10 10:00:45;;;;;;;32.17;21.10;;;7.20;99.90;;;;;;5071575;28;20405;-47
2022/03/10 10:03:12;;;;;;;26.20;19.73;;;7.30;99.90;;;;;;5072379;28;20935;-46
2022/03/10 10:05:40;;;;;;;27.63;20.17;;;7.20;99.90;;;;;;5072613;28;20572;-46
2022/03/10 10:08:10;;;;;;;30.00;20.67;;;7.40;99.90;;;;;;5071865;28;20486;-45
2022/03/10 10:10:39;;;;;;;31.87;21.27;;;7.50;99.90;;;;;;5071579;28;20506;-46
2022/03/10 10:13:07;;;;;;;27.60;20.17;;;7.50;99.90;;;;;;5072510;28;20809;-46
2022/03/10 10:15:38;;;;;;;35.27;22.43;;;7.50;99.90;;;;;;5071516;28;20436;-46
2022/03/10 10:18:05;;;;;;;35.87;21.60;;;7.40;99.90;;;;;;5054068;28;21014;-46
2022/03/10 10:20:33;;;;;;;30.90;20.50;;;7.80;99.90;;;;;;5072320;28;20926;-46
2022/03/10 10:23:20;;;;;;;30.57;20.17;;;7.50;99.90;;;;;;5073173;28;20925;-46
2022/03/10 10:25:55;;;;;;;26.93;20.20;;;7.40;99.90;;;;;;5071878;28;20458;-46
2022/03/10 10:28:31;;;;;;;26.60;20.60;;;7.90;99.90;;;;;;5072063;28;20873;-45
2022/03/10 10:31:04;;;;;;;35.00;20.20;;;7.80;99.90;;;;;;5072635;28;20511;-46
2022/03/10 10:33:33;;;;;;;25.50;19.00;;;7.90;99.90;;;;;;5072315;28;20440;-46
2022/03/10 10:36:14;;;;;;;27.33;18.63;;;7.80;99.90;;;;;;5071679;28;20443;-46
2022/03/10 10:38:44;;;;;;;31.30;19.93;;;7.60;99.90;;;;;;5069542;28;20546;-45
2022/03/10 10:41:18;;;;;;;26.87;19.20;;;8.10;99.90;;;;;;5084212;28;20517;-46
2022/03/10 10:43:47;;;;;;;26.07;19.17;;;7.80;99.90;;;;;;5091481;28;20521;-45
2022/03/10 10:46:26;;;;;;;27.70;19.47;;;8.10;99.90;;;;;;5071253;28;20436;-46
2022/03/10 10:48:53;;;;;;;26.03;18.17;;;;;;;;;;5075624;28;20459;-45
2022/03/10 10:51:30;;;;;;;26.53;18.93;;;8.20;99.90;;;;;;5075511;28;20484;-46
2022/03/10 10:54:00;;;;;;;24.53;19.83;;;8.60;99.90;;;;;;5080303;28;20430;-45
2022/03/10 10:56:28;;;;;;;29.43;17.50;;;8.40;99.40;;;;;;5095152;28;20852;-46
2022/03/10 10:58:55;;;;;;;23.27;17.07;;;;;;;;;;5095411;28;20465;-46
2022/03/10 11:01:30;;;;;;;30.93;19.53;;;8.90;98.50;;;;;;5096161;28;20528;-46
2022/03/10 11:03:57;;;;;;;24.20;18.97;;;;;;;;;;5095572;28;20462;-46
2022/03/10 11:06:24;;;;;;;24.00;17.67;;;9.00;98.00;;;;;;5094795;28;20448;-46
2022/03/10 11:08:51;;;;;;;28.40;16.97;;;;;;;;;;5095016;28;20513;-43
2022/03/10 11:11:20;;;;;;;22.90;16.83;;;9.30;97.20;;;;;;5092214;28;20484;-43
2022/03/10 11:13:48;;;;;;;20.37;15.83;;;9.50;96.90;;;;;;5074673;28;20518;-44
2022/03/10 11:16:16;;;;;;;21.23;17.20;;;9.60;96.40;;;;;;5074774;28;20434;-44
2022/03/10 11:18:48;;;;;;;23.63;15.70;;;9.60;96.00;;;;;;5073853;28;20845;-43
2022/03/10 11:21:27;;;;;;;17.37;14.97;;;9.70;96.40;;;;;;5074402;28;20440;-44
2022/03/10 11:24:10;;;;;;;18.30;14.47;;;9.70;95.40;;;;;;5074793;28;21000;-42
2022/03/10 11:26:46;;;;;;;20.93;16.23;;;9.90;94.90;;;;;;5092649;28;20448;-42
2022/03/10 11:29:20;;;;;;;20.10;15.80;;;9.80;94.60;;;;;;5094450;28;20456;-42
2022/03/10 11:31:47;;;;;;;21.87;16.17;;;10.20;94.30;;;;;;5094244;28;20812;-43
2022/03/10 11:34:45;;;;;;;28.87;17.13;;;10.20;93.90;;;;;;5094279;28;20935;-42
2022/03/10 11:37:12;;;;;;;22.00;17.70;;;10.10;93.70;;;;;;5094240;28;20482;-43
2022/03/10 11:39:54;;;;;;;20.43;15.33;;;10.00;93.30;;;;;;5094329;28;20461;-44
2022/03/10 11:42:29;;;;;;;19.87;15.60;;;10.30;93.80;;;;;;5074118;28;20951;-44
2022/03/10 11:45:10;;;;;;;20.83;14.80;;;10.30;93.00;;;;;;5074585;28;20444;-42
2022/03/10 11:47:37;;;;;;;18.47;15.63;;;9.90;93.40;;;;;;5074241;28;20933;-44
2022/03/10 11:50:28;;;;;;;23.27;16.47;;;10.20;92.30;;;;;;5073408;28;20457;-42
2022/03/10 11:52:59;;;;;;;22.00;14.90;;;10.20;91.80;;;;;;5054079;28;20969;-44
2022/03/10 11:55:41;;;;;;;20.60;14.33;;;10.30;92.00;;;;;;5091861;28;20437;-43
2022/03/10 11:58:11;;;;;;;19.77;15.73;;;10.20;91.90;;;;;;5093301;28;20456;-42
2022/03/10 12:00:52;;;;;;;20.23;15.10;;;10.00;91.40;;;;;;5093380;28;20432;-43
2022/03/10 12:03:29;;;;;;;19.80;14.87;;;10.20;91.30;;;;;;5091902;28;20490;-44
2022/03/10 12:05:58;;;;;;;17.20;14.00;;;10.10;91.30;;;;;;5091985;28;20464;-43
2022/03/10 12:08:26;;;;;;;18.23;14.53;;;;;;;;;;5091861;28;20469;-44
2022/03/10 12:10:53;;;;;;;16.73;14.90;;;10.10;90.70;;;;;;5092416;28;20429;-44
2022/03/10 12:13:33;;;;;;;18.70;14.40;;;9.90;91.50;;;;;;5073070;28;20445;-43
2022/03/10 12:16:01;;;;;;;16.30;13.47;;;9.80;91.10;;;;;;5072990;28;20441;-44
2022/03/10 12:18:40;;;;;;;19.97;14.33;;;9.60;91.30;;;;;;5073533;28;20484;-43
2022/03/10 12:21:16;;;;;;;14.47;12.97;;;;;;;;;;5073461;28;20438;-43
2022/03/10 12:23:52;;;;;;;16.40;12.87;;;9.30;91.50;;;;;;5073632;28;20964;-46
2022/03/10 12:26:26;;;;;;;15.47;12.80;;;9.60;91.50;;;;;;5089551;28;20448;-41
2022/03/10 12:28:55;;;;;;;17.93;13.57;;;9.50;91.20;;;;;;5094516;28;20475;-42
2022/03/10 12:31:24;;;;;;;19.17;14.07;;;;;;;;;;5094003;28;20472;-42
2022/03/10 12:33:53;;;;;;;19.90;14.57;;;9.30;91.10;;;;;;5093735;28;20808;-42
2022/03/10 12:36:34;;;;;;;15.60;13.07;;;9.30;91.10;;;;;;5093568;28;20945;-45
2022/03/10 12:39:02;;;;;;;18.10;15.57;;;;;;;;;;5092799;28;21025;-42
2022/03/10 12:41:33;;;;;;;16.90;14.30;;;9.40;91.10;;;;;;5077598;28;20449;-43
2022/03/10 12:44:02;;;;;;;27.03;16.37;;;;;;;;;;5072925;28;20635;-43
2022/03/10 12:46:29;;;;;;;16.70;14.37;;;9.30;90.70;;;;;;5072677;28;20446;-43
2022/03/10 12:49:04;;;;;;;16.60;14.80;;;9.30;90.50;;;;;;5072097;28;20525;-46
2022/03/10 12:51:33;;;;;;;22.13;15.87;;;;;;;;;;5072281;28;20464;-43
2022/03/10 12:54:01;;;;;;;18.10;14.80;;;9.20;90.60;;;;;;5078289;28;20447;-43
2022/03/10 12:56:28;;;;;;;18.70;15.10;;;9.00;90.60;;;;;;5093143;28;20479;-43
2022/03/10 12:58:56;;;;;;;17.40;14.90;;;9.00;90.20;;;;;;5091980;28;20503;-44
2022/03/10 13:01:24;;;;;;;23.97;16.77;;;9.20;90.60;;;;;;5092820;28;20436;-41
2022/03/10 13:03:52;;;;;;;24.43;15.60;;;9.50;90.60;;;;;;5092676;28;20532;-42
2022/03/10 13:06:21;;;;;;;17.53;15.17;;;9.10;90.20;;;;;;5092625;28;20450;-44